Glyndon, Minnesota
Current Conditions -  °F | °C
As of 10:54 AM on Thursday 30 Oct 2014 (Local Time) from KJKJ Reporting Station
Broken Clouds Broken Clouds  
Wind Chill: 30°   Ceiling: 3600
Heat Index: 39°   Visibility: 10mi
Dew Point: 39°   Wind: 20mph
Humidity: 100%   Direction: 360°N
Pressure: 30.21"   Gusts: 25mph
Location:  46.88°N, 96.58°W
Report Text: KJKJ 301554Z AUTO 36017G22KT 10SM BKN036 04/04 A3021 RMK AO2
Loading
Personal Weather Stations






























Interactive Weather Map
Tropical Storm Tracking
New forecast layout! Learn more

10-Day Weather Forecast

Advertisements
Track Severe Weather on mobile